Bretagne — FNBR — position and weather

sailwx.info

Track history (hours):
 
Tides and Currents Weather Stations Pressure Air Temp Water Temp Dewpoint Dewpoint Depression Visibility Wind Speed Wind Dir Waves Ship Positions

Bretagne

Operator: Brittany Ferries

Last reported at 2016-Jun-27 16:33 UTC. Time now 2016-Jun-27 16:53 UTC.
Position N 50°47' W 001°06'.

Length 151 m; beam 27 m.

Type: Ship. MMSI: 227286000.

Date/timePositionNaut miles runAvg speedWind from/ knotsBaromVisibWave heightAir tempDewpointWater temp
2016-Jun-27 16:33N 50°47' W 001°06'1413.6
2016-Jun-27 15:33N 50°33' W 001°11'1919.2
2016-Jun-27 14:33N 50°17' W 001°28'2019.7
2016-Jun-27 13:33N 49°60' W 001°43'7918.8
2016-Jun-27 09:20N 48°42' W 002°02'26 5.2
2016-Jun-27 04:25N 49°04' W 002°22'1214.5
2016-Jun-27 03:33N 49°16' W 002°21'3114.2
2016-Jun-27 01:22N 49°45' W 002°03'1012.7
2016-Jun-27 00:33N 49°54' W 001°56'3213.2
2016-Jun-26 22:07N 50°20' W 001°25'814.8
2016-Jun-26 21:33N 50°27' W 001°18'1616.0
2016-Jun-26 20:34N 50°40' W 001°04'9 8.8
2016-Jun-26 19:34N 50°48' W 001°07'1 0.7
2016-Jun-26 18:31N 50°49' W 001°06'0 0.0
2016-Jun-26 17:31N 50°49' W 001°06'2 2.3
2016-Jun-26 16:33N 50°46' W 001°06'1212.0
2016-Jun-26 15:33N 50°35' W 001°10'1515.1
2016-Jun-26 14:33N 50°22' W 001°23'1615.8
2016-Jun-26 13:33N 50°09' W 001°37'21 1.3
2016-Jun-25 21:31N 50°26' W 001°19'1515.9
2016-Jun-25 20:34N 50°39' W 001°05'9 9.3
2016-Jun-25 19:33N 50°48' W 001°07'1 1.1
2016-Jun-25 18:33N 50°49' W 001°06'0 0.0
2016-Jun-25 17:32N 50°49' W 001°06'2 2.4
2016-Jun-25 16:33N 50°46' W 001°05'1313.4
2016-Jun-25 15:33N 50°33' W 001°11'1717.1
2016-Jun-25 14:34N 50°18' W 001°22'1616.2
2016-Jun-25 13:33N 50°05' W 001°38'2 0.1
2016-Jun-24 23:09N 50°06' W 001°40'1215.3
2016-Jun-24 22:20N 50°16' W 001°30'1215.3
2016-Jun-24 21:33N 50°26' W 001°19'1414.5
2016-Jun-24 20:33N 50°38' W 001°06'1010.4
2016-Jun-24 19:34N 50°48' W 001°07'1 0.9
2016-Jun-24 18:33N 50°49' W 001°06'0 0.0
2016-Jun-24 17:33N 50°49' W 001°06'5 4.7
2016-Jun-24 16:34N 50°44' W 001°04'1212.0
2016-Jun-24 15:31N 50°33' W 001°12'89 7.2
2016-Jun-24 03:15N 49°16' W 002°21'1516.2
2016-Jun-24 02:19N 49°31' W 002°13'1519.6
2016-Jun-24 01:34N 49°44' W 002°04'1919.2
2016-Jun-24 00:33N 50°00' W 001°47'1817.8
2016-Jun-23 23:32N 50°15' W 001°31'1717.1
2016-Jun-23 22:34N 50°29' W 001°16'1515.1
2016-Jun-23 21:34N 50°41' W 001°03'8 7.6
2016-Jun-23 20:33N 50°49' W 001°06'0 0.0
2016-Jun-23 19:31N 50°49' W 001°06'0 0.0
2016-Jun-23 18:33N 50°49' W 001°06'8 8.1
2016-Jun-23 17:33N 50°41' W 001°03'25 1.3
2016-Jun-22 22:12N 50°20' W 001°25'913.8
2016-Jun-22 21:33N 50°27' W 001°17'1312.9
2016-Jun-22 20:33N 50°38' W 001°06'1010.2
2016-Jun-22 19:33N 50°48' W 001°07'1 0.9
2016-Jun-22 18:31N 50°49' W 001°06'0 0.0
2016-Jun-22 17:31N 50°49' W 001°06'0 0.0
2016-Jun-22 16:31N 50°49' W 001°06'0 0.0
2016-Jun-22 15:31N 50°49' W 001°06'0 0.0
2016-Jun-22 14:31N 50°49' W 001°06'0 0.0
2016-Jun-22 13:31N 50°49' W 001°06'0 0.0
2016-Jun-22 12:31N 50°49' W 001°06'0 0.0
2016-Jun-22 11:31N 50°49' W 001°06'0 0.0
2016-Jun-22 10:31N 50°49' W 001°06'0 0.0
2016-Jun-22 09:31N 50°49' W 001°06'0 0.0
2016-Jun-22 08:31N 50°49' W 001°06'0 0.0
2016-Jun-22 07:31N 50°49' W 001°06'0 0.3
2016-Jun-22 06:34N 50°49' W 001°06'9 9.3
2016-Jun-22 05:33N 50°41' W 000°58'1413.9
2016-Jun-22 04:33N 50°29' W 001°10'97 4.0
2016-Jun-21 04:12N 49°04' W 002°23'913.2
2016-Jun-21 03:32N 49°13' W 002°22'1413.9
2016-Jun-21 02:32N 49°26' W 002°15'5717.5
2016-Jun-20 23:18N 50°14' W 001°29'1114.9
2016-Jun-20 22:33N 50°23' W 001°20'1413.9
2016-Jun-20 21:33N 50°35' W 001°09'1111.2
2016-Jun-20 20:34N 50°46' W 001°05'2 2.4
2016-Jun-20 19:33N 50°49' W 001°06'0 0.0
2016-Jun-20 18:34N 50°49' W 001°06'1 0.6
2016-Jun-20 17:33N 50°49' W 001°07'1110.6
2016-Jun-20 16:33N 50°38' W 001°03'24 1.3
2016-Jun-19 22:23N 50°20' W 001°27'1214.0
2016-Jun-19 21:34N 50°29' W 001°16'1212.4
2016-Jun-19 20:34N 50°39' W 001°05'10 9.5
2016-Jun-19 19:34N 50°48' W 001°07'1 0.7
2016-Jun-19 18:32N 50°49' W 001°06'0 0.0
2016-Jun-19 17:32N 50°49' W 001°06'5 5.4
2016-Jun-19 16:33N 50°44' W 001°03'1514.7
2016-Jun-19 15:33N 50°31' W 001°14'11616.4
2016-Jun-19 08:32N 48°40' W 002°05'19 4.8
2016-Jun-19 04:32N 48°56' W 002°21'1412.9
2016-Jun-19 03:28N 49°10' W 002°22'5316.0
2016-Jun-19 00:12N 49°57' W 001°45'1316.2
2016-Jun-18 23:23N 50°09' W 001°37'1915.6
2016-Jun-18 22:09N 50°25' W 001°21'915.5
2016-Jun-18 21:33N 50°33' W 001°12'1212.5
2016-Jun-18 20:33N 50°44' W 001°04'5 4.7
2016-Jun-18 19:33N 50°49' W 001°06'0 0.0
2016-Jun-18 18:33N 50°49' W 001°06'0 0.0
2016-Jun-18 17:34N 50°49' W 001°06'9 9.4
2016-Jun-18 16:33N 50°40' W 000°60'4119.1
2016-Jun-18 14:26N 50°12' W 001°45'10 0.6
2016-Jun-17 22:16N 50°17' W 001°31'1116.0
2016-Jun-17 21:33N 50°26' W 001°20'1514.7
2016-Jun-17 20:33N 50°38' W 001°07'1010.3
2016-Jun-17 19:33N 50°48' W 001°07'1 1.0
2016-Jun-17 18:32N 50°49' W 001°06'0 0.0
2016-Jun-17 17:33N 50°49' W 001°06'7 6.6
2016-Jun-17 16:33N 50°42' W 001°03'  
Track history (hours):
 
Tides and Currents Weather Stations Pressure Air Temp Water Temp Dewpoint Dewpoint Depression Visibility Wind Speed Wind Dir Waves Ship Positions

Bretagne

Operator: Brittany Ferries

Last reported at 2016-Jun-27 16:33 UTC. Time now 2016-Jun-27 16:53 UTC.
Position N 50°47' W 001°06'.

Length 151 m; beam 27 m.

Type: Ship. MMSI: 227286000.

Date/timePositionNaut miles runAvg speedWind from/ knotsBaromVisibWave heightAir tempDewpointWater temp
2016-Jun-27 16:33N 50°47' W 001°06'1413.6
2016-Jun-27 15:33N 50°33' W 001°11'1919.2
2016-Jun-27 14:33N 50°17' W 001°28'2019.7
2016-Jun-27 13:33N 49°60' W 001°43'7918.8
2016-Jun-27 09:20N 48°42' W 002°02'26 5.2
2016-Jun-27 04:25N 49°04' W 002°22'1214.5
2016-Jun-27 03:33N 49°16' W 002°21'3114.2
2016-Jun-27 01:22N 49°45' W 002°03'1012.7
2016-Jun-27 00:33N 49°54' W 001°56'3213.2
2016-Jun-26 22:07N 50°20' W 001°25'814.8
2016-Jun-26 21:33N 50°27' W 001°18'1616.0
2016-Jun-26 20:34N 50°40' W 001°04'9 8.8
2016-Jun-26 19:34N 50°48' W 001°07'1 0.7
2016-Jun-26 18:31N 50°49' W 001°06'0 0.0
2016-Jun-26 17:31N 50°49' W 001°06'2 2.3
2016-Jun-26 16:33N 50°46' W 001°06'1212.0
2016-Jun-26 15:33N 50°35' W 001°10'1515.1
2016-Jun-26 14:33N 50°22' W 001°23'1615.8
2016-Jun-26 13:33N 50°09' W 001°37'21 1.3
2016-Jun-25 21:31N 50°26' W 001°19'1515.9
2016-Jun-25 20:34N 50°39' W 001°05'9 9.3
2016-Jun-25 19:33N 50°48' W 001°07'1 1.1
2016-Jun-25 18:33N 50°49' W 001°06'0 0.0
2016-Jun-25 17:32N 50°49' W 001°06'2 2.4
2016-Jun-25 16:33N 50°46' W 001°05'1313.4
2016-Jun-25 15:33N 50°33' W 001°11'1717.1
2016-Jun-25 14:34N 50°18' W 001°22'1616.2
2016-Jun-25 13:33N 50°05' W 001°38'2 0.1
2016-Jun-24 23:09N 50°06' W 001°40'1215.3
2016-Jun-24 22:20N 50°16' W 001°30'1215.3
2016-Jun-24 21:33N 50°26' W 001°19'1414.5
2016-Jun-24 20:33N 50°38' W 001°06'1010.4
2016-Jun-24 19:34N 50°48' W 001°07'1 0.9
2016-Jun-24 18:33N 50°49' W 001°06'0 0.0
2016-Jun-24 17:33N 50°49' W 001°06'5 4.7
2016-Jun-24 16:34N 50°44' W 001°04'1212.0
2016-Jun-24 15:31N 50°33' W 001°12'89 7.2
2016-Jun-24 03:15N 49°16' W 002°21'1516.2
2016-Jun-24 02:19N 49°31' W 002°13'1519.6
2016-Jun-24 01:34N 49°44' W 002°04'1919.2
2016-Jun-24 00:33N 50°00' W 001°47'1817.8
2016-Jun-23 23:32N 50°15' W 001°31'1717.1
2016-Jun-23 22:34N 50°29' W 001°16'1515.1
2016-Jun-23 21:34N 50°41' W 001°03'8 7.6
2016-Jun-23 20:33N 50°49' W 001°06'0 0.0
2016-Jun-23 19:31N 50°49' W 001°06'0 0.0
2016-Jun-23 18:33N 50°49' W 001°06'8 8.1
2016-Jun-23 17:33N 50°41' W 001°03'25 1.3
2016-Jun-22 22:12N 50°20' W 001°25'913.8
2016-Jun-22 21:33N 50°27' W 001°17'1312.9
2016-Jun-22 20:33N 50°38' W 001°06'1010.2
2016-Jun-22 19:33N 50°48' W 001°07'1 0.9
2016-Jun-22 18:31N 50°49' W 001°06'0 0.0
2016-Jun-22 17:31N 50°49' W 001°06'0 0.0
2016-Jun-22 16:31N 50°49' W 001°06'0 0.0
2016-Jun-22 15:31N 50°49' W 001°06'0 0.0
2016-Jun-22 14:31N 50°49' W 001°06'0 0.0
2016-Jun-22 13:31N 50°49' W 001°06'0 0.0
2016-Jun-22 12:31N 50°49' W 001°06'0 0.0
2016-Jun-22 11:31N 50°49' W 001°06'0 0.0
2016-Jun-22 10:31N 50°49' W 001°06'0 0.0
2016-Jun-22 09:31N 50°49' W 001°06'0 0.0
2016-Jun-22 08:31N 50°49' W 001°06'0 0.0
2016-Jun-22 07:31N 50°49' W 001°06'0 0.3
2016-Jun-22 06:34N 50°49' W 001°06'9 9.3
2016-Jun-22 05:33N 50°41' W 000°58'1413.9
2016-Jun-22 04:33N 50°29' W 001°10'97 4.0
2016-Jun-21 04:12N 49°04' W 002°23'913.2
2016-Jun-21 03:32N 49°13' W 002°22'1413.9
2016-Jun-21 02:32N 49°26' W 002°15'5717.5
2016-Jun-20 23:18N 50°14' W 001°29'1114.9
2016-Jun-20 22:33N 50°23' W 001°20'1413.9
2016-Jun-20 21:33N 50°35' W 001°09'1111.2
2016-Jun-20 20:34N 50°46' W 001°05'2 2.4
2016-Jun-20 19:33N 50°49' W 001°06'0 0.0
2016-Jun-20 18:34N 50°49' W 001°06'1 0.6
2016-Jun-20 17:33N 50°49' W 001°07'1110.6
2016-Jun-20 16:33N 50°38' W 001°03'24 1.3
2016-Jun-19 22:23N 50°20' W 001°27'1214.0
2016-Jun-19 21:34N 50°29' W 001°16'1212.4
2016-Jun-19 20:34N 50°39' W 001°05'10 9.5
2016-Jun-19 19:34N 50°48' W 001°07'1 0.7
2016-Jun-19 18:32N 50°49' W 001°06'0 0.0
2016-Jun-19 17:32N 50°49' W 001°06'5 5.4
2016-Jun-19 16:33N 50°44' W 001°03'1514.7
2016-Jun-19 15:33N 50°31' W 001°14'11616.4
2016-Jun-19 08:32N 48°40' W 002°05'19 4.8
2016-Jun-19 04:32N 48°56' W 002°21'1412.9
2016-Jun-19 03:28N 49°10' W 002°22'5316.0
2016-Jun-19 00:12N 49°57' W 001°45'1316.2
2016-Jun-18 23:23N 50°09' W 001°37'1915.6
2016-Jun-18 22:09N 50°25' W 001°21'915.5
2016-Jun-18 21:33N 50°33' W 001°12'1212.5
2016-Jun-18 20:33N 50°44' W 001°04'5 4.7
2016-Jun-18 19:33N 50°49' W 001°06'0 0.0
2016-Jun-18 18:33N 50°49' W 001°06'0 0.0
2016-Jun-18 17:34N 50°49' W 001°06'9 9.4
2016-Jun-18 16:33N 50°40' W 000°60'4119.1
2016-Jun-18 14:26N 50°12' W 001°45'10 0.6
2016-Jun-17 22:16N 50°17' W 001°31'1116.0
2016-Jun-17 21:33N 50°26' W 001°20'1514.7
2016-Jun-17 20:33N 50°38' W 001°07'1010.3
2016-Jun-17 19:33N 50°48' W 001°07'1 1.0
2016-Jun-17 18:32N 50°49' W 001°06'0 0.0
2016-Jun-17 17:33N 50°49' W 001°06'7 6.6
2016-Jun-17 16:33N 50°42' W 001°03'  

Dump ship's entire track history